sensor_id;sensor_type;location;lat;lon;timestamp;pressure;altitude;pressure_sealevel;temperature;humidity
63552;BME280;49698;48.072;7.800;2023-07-29T00:02:26;98931.69;;;17.45;100.00
63552;BME280;49698;48.072;7.800;2023-07-29T00:04:56;98936.69;;;17.43;100.00
63552;BME280;49698;48.072;7.800;2023-07-29T00:07:24;98935.09;;;17.42;100.00
63552;BME280;49698;48.072;7.800;2023-07-29T00:09:53;98924.56;;;17.40;100.00
63552;BME280;49698;48.072;7.800;2023-07-29T00:12:23;98919.47;;;17.39;100.00
63552;BME280;49698;48.072;7.800;2023-07-29T00:14:51;98919.00;;;17.36;100.00
63552;BME280;49698;48.072;7.800;2023-07-29T00:17:19;98915.84;;;17.34;100.00
63552;BME280;49698;48.072;7.800;2023-07-29T00:19:47;98920.34;;;17.30;100.00
63552;BME280;49698;48.072;7.800;2023-07-29T00:22:15;98910.63;;;17.29;100.00
63552;BME280;49698;48.072;7.800;2023-07-29T00:24:43;98903.97;;;17.27;100.00
63552;BME280;49698;48.072;7.800;2023-07-29T00:27:12;98903.50;;;17.25;100.00
63552;BME280;49698;48.072;7.800;2023-07-29T00:29:41;98901.13;;;17.23;100.00
63552;BME280;49698;48.072;7.800;2023-07-29T00:32:10;98906.56;;;17.23;100.00
63552;BME280;49698;48.072;7.800;2023-07-29T00:34:38;98912.00;;;17.23;100.00
63552;BME280;49698;48.072;7.800;2023-07-29T00:37:06;98913.13;;;17.22;100.00
63552;BME280;49698;48.072;7.800;2023-07-29T00:39:34;98904.66;;;17.24;100.00
63552;BME280;49698;48.072;7.800;2023-07-29T00:42:04;98902.72;;;17.24;100.00
63552;BME280;49698;48.072;7.800;2023-07-29T00:44:32;98909.41;;;17.27;100.00
63552;BME280;49698;48.072;7.800;2023-07-29T00:47:02;98898.53;;;17.27;100.00
63552;BME280;49698;48.072;7.800;2023-07-29T00:49:32;98910.19;;;17.27;100.00
63552;BME280;49698;48.072;7.800;2023-07-29T00:52:02;98901.25;;;17.27;100.00
63552;BME280;49698;48.072;7.800;2023-07-29T00:54:30;98900.13;;;17.28;100.00
63552;BME280;49698;48.072;7.800;2023-07-29T00:56:58;98895.47;;;17.28;100.00
63552;BME280;49698;48.072;7.800;2023-07-29T00:59:27;98903.16;;;17.26;100.00
63552;BME280;49698;48.072;7.800;2023-07-29T01:01:57;98893.00;;;17.23;100.00
63552;BME280;49698;48.072;7.800;2023-07-29T01:04:27;98892.19;;;17.23;100.00
63552;BME280;49698;48.072;7.800;2023-07-29T01:07:01;98891.38;;;17.22;100.00
63552;BME280;49698;48.072;7.800;2023-07-29T01:09:37;98892.09;;;17.19;100.00
63552;BME280;49698;48.072;7.800;2023-07-29T01:12:15;98902.13;;;17.19;100.00
63552;BME280;49698;48.072;7.800;2023-07-29T01:17:40;98887.31;;;17.16;100.00
63552;BME280;49698;48.072;7.800;2023-07-29T01:20:14;98882.56;;;17.13;100.00
63552;BME280;49698;48.072;7.800;2023-07-29T01:22:43;98882.56;;;17.13;100.00
63552;BME280;49698;48.072;7.800;2023-07-29T01:25:12;98879.38;;;17.11;100.00
63552;BME280;49698;48.072;7.800;2023-07-29T01:27:41;98873.94;;;17.11;100.00
63552;BME280;49698;48.072;7.800;2023-07-29T01:30:10;98883.72;;;17.12;100.00
63552;BME280;49698;48.072;7.800;2023-07-29T01:32:43;98889.13;;;17.12;100.00
63552;BME280;49698;48.072;7.800;2023-07-29T01:35:18;98885.63;;;17.11;100.00
63552;BME280;49698;48.072;7.800;2023-07-29T01:37:55;98886.41;;;17.12;100.00
63552;BME280;49698;48.072;7.800;2023-07-29T01:40:27;98889.13;;;17.12;100.00
63552;BME280;49698;48.072;7.800;2023-07-29T01:42:56;98880.19;;;17.11;100.00
63552;BME280;49698;48.072;7.800;2023-07-29T01:45:25;98888.00;;;17.13;100.00
63552;BME280;49698;48.072;7.800;2023-07-29T01:47:53;98883.34;;;17.14;100.00
63552;BME280;49698;48.072;7.800;2023-07-29T01:50:21;98885.72;;;17.15;100.00
63552;BME280;49698;48.072;7.800;2023-07-29T01:52:50;98878.03;;;17.17;100.00
63552;BME280;49698;48.072;7.800;2023-07-29T01:55:31;98874.97;;;17.19;100.00
63552;BME280;49698;48.072;7.800;2023-07-29T01:58:01;98874.66;;;17.20;100.00
63552;BME280;49698;48.072;7.800;2023-07-29T02:00:30;98864.94;;;17.19;100.00
63552;BME280;49698;48.072;7.800;2023-07-29T02:02:58;98870.38;;;17.19;100.00
63552;BME280;49698;48.072;7.800;2023-07-29T02:05:26;98875.78;;;17.19;100.00
63552;BME280;49698;48.072;7.800;2023-07-29T02:07:54;98874.19;;;17.18;100.00
63552;BME280;49698;48.072;7.800;2023-07-29T02:10:22;98870.69;;;17.18;100.00
63552;BME280;49698;48.072;7.800;2023-07-29T02:12:50;98878.03;;;17.17;100.00
63552;BME280;49698;48.072;7.800;2023-07-29T02:15:20;98873.75;;;17.16;100.00
63552;BME280;49698;48.072;7.800;2023-07-29T02:17:50;98888.13;;;17.17;100.00
63552;BME280;49698;48.072;7.800;2023-07-29T02:20:18;98879.19;;;17.16;100.00
63552;BME280;49698;48.072;7.800;2023-07-29T02:22:46;98881.91;;;17.16;100.00
63552;BME280;49698;48.072;7.800;2023-07-29T02:25:15;98874.19;;;17.18;100.00
63552;BME280;49698;48.072;7.800;2023-07-29T02:27:43;98870.38;;;17.19;100.00
63552;BME280;49698;48.072;7.800;2023-07-29T02:30:12;98866.50;;;17.20;100.00
63552;BME280;49698;48.072;7.800;2023-07-29T02:32:41;98866.94;;;17.22;100.00
63552;BME280;49698;48.072;7.800;2023-07-29T02:35:09;98870.44;;;17.23;100.00
63552;BME280;49698;48.072;7.800;2023-07-29T02:37:37;98857.69;;;17.23;100.00
63552;BME280;49698;48.072;7.800;2023-07-29T02:40:06;98855.75;;;17.24;100.00
63552;BME280;49698;48.072;7.800;2023-07-29T02:42:35;98861.19;;;17.24;100.00
63552;BME280;49698;48.072;7.800;2023-07-29T02:45:04;98854.97;;;17.23;100.00
63552;BME280;49698;48.072;7.800;2023-07-29T02:47:36;98858.78;;;17.22;100.00
63552;BME280;49698;48.072;7.800;2023-07-29T02:50:06;98857.22;;;17.21;100.00
63552;BME280;49698;48.072;7.800;2023-07-29T02:52:34;98858.47;;;17.24;100.00
63552;BME280;49698;48.072;7.800;2023-07-29T02:55:03;98842.50;;;17.22;100.00
63552;BME280;49698;48.072;7.800;2023-07-29T02:57:31;98849.53;;;17.23;100.00
63552;BME280;49698;48.072;7.800;2023-07-29T02:59:59;98851.78;;;17.21;100.00
63552;BME280;49698;48.072;7.800;2023-07-29T03:02:27;98854.50;;;17.21;100.00
63552;BME280;49698;48.072;7.800;2023-07-29T03:04:55;98851.78;;;17.21;100.00
63552;BME280;49698;48.072;7.800;2023-07-29T03:07:25;98844.44;;;17.22;100.00
63552;BME280;49698;48.072;7.800;2023-07-29T03:09:53;98838.66;;;17.23;100.00
63552;BME280;49698;48.072;7.800;2023-07-29T03:12:21;98850.66;;;17.22;100.00
63552;BME280;49698;48.072;7.800;2023-07-29T03:14:49;98837.06;;;17.22;100.00
63552;BME280;49698;48.072;7.800;2023-07-29T03:17:17;98842.06;;;17.20;100.00
63552;BME280;49698;48.072;7.800;2023-07-29T03:19:45;98831.19;;;17.20;100.00
63552;BME280;49698;48.072;7.800;2023-07-29T03:22:13;98833.91;;;17.20;100.00
63552;BME280;49698;48.072;7.800;2023-07-29T03:24:43;98824.50;;;17.18;100.00
63552;BME280;49698;48.072;7.800;2023-07-29T03:27:11;98824.50;;;17.18;100.00
63552;BME280;49698;48.072;7.800;2023-07-29T03:29:40;98831.41;;;17.15;100.00
63552;BME280;49698;48.072;7.800;2023-07-29T03:32:08;98835.25;;;17.14;100.00
63552;BME280;49698;48.072;7.800;2023-07-29T03:34:36;98831.31;;;17.11;100.00
63552;BME280;49698;48.072;7.800;2023-07-29T03:37:05;98833.56;;;17.09;100.00
63552;BME280;49698;48.072;7.800;2023-07-29T03:39:33;98835.03;;;17.07;100.00
63552;BME280;49698;48.072;7.800;2023-07-29T03:42:04;98838.88;;;17.06;100.00
63552;BME280;49698;48.072;7.800;2023-07-29T03:44:32;98837.31;;;17.05;100.00
63552;BME280;49698;48.072;7.800;2023-07-29T03:47:01;98838.44;;;17.04;100.00
63552;BME280;49698;48.072;7.800;2023-07-29T03:49:30;98838.78;;;17.02;100.00
63552;BME280;49698;48.072;7.800;2023-07-29T03:51:58;98834.13;;;17.03;100.00
63552;BME280;49698;48.072;7.800;2023-07-29T03:54:27;98835.63;;;17.00;100.00
63552;BME280;49698;48.072;7.800;2023-07-29T03:56:55;98832.56;;;17.02;100.00
63552;BME280;49698;48.072;7.800;2023-07-29T03:59:24;98833.34;;;17.02;100.00
63552;BME280;49698;48.072;7.800;2023-07-29T04:01:52;98826.78;;;17.03;100.00
63552;BME280;49698;48.072;7.800;2023-07-29T04:04:21;98823.28;;;17.03;100.00
63552;BME280;49698;48.072;7.800;2023-07-29T04:06:49;98827.59;;;17.04;100.00
63552;BME280;49698;48.072;7.800;2023-07-29T04:09:17;98828.38;;;17.04;100.00
63552;BME280;49698;48.072;7.800;2023-07-29T04:11:45;98824.16;;;17.07;100.00
63552;BME280;49698;48.072;7.800;2023-07-29T04:14:13;98823.84;;;17.08;100.00
63552;BME280;49698;48.072;7.800;2023-07-29T04:16:43;98820.78;;;17.10;100.00
63552;BME280;49698;48.072;7.800;2023-07-29T04:19:12;98828.94;;;17.10;100.00
63552;BME280;49698;48.072;7.800;2023-07-29T04:21:40;98832.44;;;17.10;100.00
63552;BME280;49698;48.072;7.800;2023-07-29T04:24:08;98832.78;;;17.09;100.00
63552;BME280;49698;48.072;7.800;2023-07-29T04:26:36;98845.22;;;17.10;100.00
63552;BME280;49698;48.072;7.800;2023-07-29T04:29:05;98848.72;;;17.10;100.00
63552;BME280;49698;48.072;7.800;2023-07-29T04:31:33;98846.00;;;17.10;100.00
63552;BME280;49698;48.072;7.800;2023-07-29T04:34:04;98851.13;;;17.12;100.00
63552;BME280;49698;48.072;7.800;2023-07-29T04:36:32;98851.56;;;17.14;100.00
63552;BME280;49698;48.072;7.800;2023-07-29T04:39:01;98847.38;;;17.17;100.00
63552;BME280;49698;48.072;7.800;2023-07-29T04:41:29;98852.47;;;17.18;100.00
63552;BME280;49698;48.072;7.800;2023-07-29T04:43:57;98854.50;;;17.21;100.00
63552;BME280;49698;48.072;7.800;2023-07-29T04:46:25;98854.97;;;17.23;100.00
63552;BME280;49698;48.072;7.800;2023-07-29T04:48:53;98854.25;;;17.26;100.00
63552;BME280;49698;48.072;7.800;2023-07-29T04:51:24;98850.88;;;17.29;100.00
63552;BME280;49698;48.072;7.800;2023-07-29T04:53:52;98847.47;;;17.32;100.00
63552;BME280;49698;48.072;7.800;2023-07-29T04:56:20;98857.69;;;17.35;100.00
63552;BME280;49698;48.072;7.800;2023-07-29T04:58:48;98865.16;;;17.39;100.00
63552;BME280;49698;48.072;7.800;2023-07-29T05:01:17;98871.03;;;17.41;100.00
63552;BME280;49698;48.072;7.800;2023-07-29T05:03:45;98868.78;;;17.43;100.00
63552;BME280;49698;48.072;7.800;2023-07-29T05:06:13;98871.13;;;17.44;100.00
63552;BME280;49698;48.072;7.800;2023-07-29T05:08:43;98869.19;;;17.45;100.00
63552;BME280;49698;48.072;7.800;2023-07-29T05:11:11;98880.53;;;17.47;100.00
63552;BME280;49698;48.072;7.800;2023-07-29T05:13:39;98875.53;;;17.49;100.00
63552;BME280;49698;48.072;7.800;2023-07-29T05:16:09;98871.34;;;17.51;100.00
63552;BME280;49698;48.072;7.800;2023-07-29T05:18:38;98873.72;;;17.53;100.00
63552;BME280;49698;48.072;7.800;2023-07-29T05:21:06;98872.25;;;17.55;100.00
63552;BME280;49698;48.072;7.800;2023-07-29T05:23:35;98877.81;;;17.59;100.00
63552;BME280;49698;48.072;7.800;2023-07-29T05:26:04;98877.81;;;17.59;100.00
63552;BME280;49698;48.072;7.800;2023-07-29T05:28:32;98878.59;;;17.59;100.00
63552;BME280;49698;48.072;7.800;2023-07-29T05:31:01;98889.56;;;17.63;100.00
63552;BME280;49698;48.072;7.800;2023-07-29T05:33:29;98898.16;;;17.65;100.00
63552;BME280;49698;48.072;7.800;2023-07-29T05:35:57;98897.47;;;17.68;100.00
63552;BME280;49698;48.072;7.800;2023-07-29T05:38:25;98896.81;;;17.71;100.00
63552;BME280;49698;48.072;7.800;2023-07-29T05:40:53;98902.38;;;17.75;100.00
63552;BME280;49698;48.072;7.800;2023-07-29T05:43:24;98903.28;;;17.79;100.00
63552;BME280;49698;48.072;7.800;2023-07-29T05:45:52;98902.59;;;17.82;100.00
63552;BME280;49698;48.072;7.800;2023-07-29T05:48:21;98891.84;;;17.86;100.00
63552;BME280;49698;48.072;7.800;2023-07-29T05:50:50;98900.53;;;17.91;100.00
63552;BME280;49698;48.072;7.800;2023-07-29T05:53:18;98890.66;;;17.99;100.00
63552;BME280;49698;48.072;7.800;2023-07-29T05:55:46;98896.31;;;18.06;100.00
63552;BME280;49698;48.072;7.800;2023-07-29T05:58:14;98910.13;;;18.13;100.00
63552;BME280;49698;48.072;7.800;2023-07-29T06:00:44;98907.50;;;18.17;100.00
63552;BME280;49698;48.072;7.800;2023-07-29T06:03:12;98913.47;;;18.22;100.00
63552;BME280;49698;48.072;7.800;2023-07-29T06:05:40;98914.72;;;18.25;100.00
63552;BME280;49698;48.072;7.800;2023-07-29T06:08:09;98917.09;;;18.26;100.00
63552;BME280;49698;48.072;7.800;2023-07-29T06:10:37;98916.41;;;18.29;100.00
63552;BME280;49698;48.072;7.800;2023-07-29T06:13:05;98914.13;;;18.31;100.00
63552;BME280;49698;48.072;7.800;2023-07-29T06:15:33;98916.41;;;18.29;100.00
63552;BME280;49698;48.072;7.800;2023-07-29T06:18:03;98920.25;;;18.28;100.00
63552;BME280;49698;48.072;7.800;2023-07-29T06:20:31;98923.66;;;18.25;100.00
63552;BME280;49698;48.072;7.800;2023-07-29T06:22:59;98935.69;;;18.24;100.00
63552;BME280;49698;48.072;7.800;2023-07-29T06:25:28;98924.34;;;18.22;100.00
63552;BME280;49698;48.072;7.800;2023-07-29T06:27:56;98928.22;;;18.21;100.00
63552;BME280;49698;48.072;7.800;2023-07-29T06:30:25;98920.84;;;18.22;100.00
63552;BME280;49698;48.072;7.800;2023-07-29T06:32:54;98913.94;;;18.24;100.00
63552;BME280;49698;48.072;7.800;2023-07-29T06:35:24;98921.06;;;18.29;100.00
63552;BME280;49698;48.072;7.800;2023-07-29T06:37:52;98912.63;;;18.34;100.00
63552;BME280;49698;48.072;7.800;2023-07-29T06:40:20;98915.13;;;18.39;100.00
63552;BME280;49698;48.072;7.800;2023-07-29T06:42:48;98922.56;;;18.42;100.00
63552;BME280;49698;48.072;7.800;2023-07-29T06:45:16;98929.81;;;18.50;100.00
63552;BME280;49698;48.072;7.800;2023-07-29T06:47:45;98933.50;;;18.58;100.00
63552;BME280;49698;48.072;7.800;2023-07-29T06:50:13;98920.09;;;18.65;100.00
63552;BME280;49698;48.072;7.800;2023-07-29T06:52:42;98922.34;;;18.75;100.00
63552;BME280;49698;48.072;7.800;2023-07-29T06:55:10;98920.69;;;18.87;100.00
63552;BME280;49698;48.072;7.800;2023-07-29T06:57:38;98923.34;;;18.99;100.00
63552;BME280;49698;48.072;7.800;2023-07-29T07:00:08;98924.84;;;19.12;100.00
63552;BME280;49698;48.072;7.800;2023-07-29T07:02:36;98930.66;;;19.26;100.00
63552;BME280;49698;48.072;7.800;2023-07-29T07:05:05;98917.09;;;19.46;100.00
63552;BME280;49698;48.072;7.800;2023-07-29T07:07:33;98936.44;;;19.72;100.00
63552;BME280;49698;48.072;7.800;2023-07-29T07:10:04;98912.50;;;20.01;100.00
63552;BME280;49698;48.072;7.800;2023-07-29T07:12:32;98922.81;;;20.27;100.00
63552;BME280;49698;48.072;7.800;2023-07-29T07:15:00;98921.81;;;20.55;100.00
63552;BME280;49698;48.072;7.800;2023-07-29T07:17:29;98924.66;;;20.81;100.00
63552;BME280;49698;48.072;7.800;2023-07-29T07:19:57;98924.31;;;21.06;100.00
63552;BME280;49698;48.072;7.800;2023-07-29T07:22:25;98918.41;;;21.27;100.00
63552;BME280;49698;48.072;7.800;2023-07-29T07:24:53;98919.09;;;21.43;100.00
63552;BME280;49698;48.072;7.800;2023-07-29T07:27:23;98924.00;;;21.57;100.00
63552;BME280;49698;48.072;7.800;2023-07-29T07:29:51;98922.69;;;21.73;100.00
63552;BME280;49698;48.072;7.800;2023-07-29T07:32:19;98911.09;;;21.84;99.61
63552;BME280;49698;48.072;7.800;2023-07-29T07:34:47;98921.03;;;21.95;98.27
63552;BME280;49698;48.072;7.800;2023-07-29T07:37:15;98917.69;;;22.09;97.30
63552;BME280;49698;48.072;7.800;2023-07-29T07:39:43;98914.38;;;22.23;96.16
63552;BME280;49698;48.072;7.800;2023-07-29T07:42:11;98924.75;;;22.40;95.12
63552;BME280;49698;48.072;7.800;2023-07-29T07:44:40;98926.44;;;22.52;93.85
63552;BME280;49698;48.072;7.800;2023-07-29T07:47:09;98920.16;;;22.48;92.11
63552;BME280;49698;48.072;7.800;2023-07-29T07:49:37;98919.41;;;22.51;92.15
63552;BME280;49698;48.072;7.800;2023-07-29T07:52:05;98915.16;;;22.57;91.75
63552;BME280;49698;48.072;7.800;2023-07-29T07:54:33;98907.75;;;22.58;91.07
63552;BME280;49698;48.072;7.800;2023-07-29T07:57:01;98910.97;;;22.67;90.93
63552;BME280;49698;48.072;7.800;2023-07-29T07:59:29;98915.81;;;22.81;89.67
63552;BME280;49698;48.072;7.800;2023-07-29T08:01:59;98913.53;;;22.90;88.89
63552;BME280;49698;48.072;7.800;2023-07-29T08:04:27;98899.94;;;22.97;86.75
63552;BME280;49698;48.072;7.800;2023-07-29T08:06:55;98905.81;;;22.99;86.78
63552;BME280;49698;48.072;7.800;2023-07-29T08:09:23;98906.72;;;23.10;86.42
63552;BME280;49698;48.072;7.800;2023-07-29T08:11:51;98913.91;;;23.29;86.00
63552;BME280;49698;48.072;7.800;2023-07-29T08:14:19;98899.97;;;23.49;84.16
63552;BME280;49698;48.072;7.800;2023-07-29T08:16:47;98908.22;;;23.52;82.76
63552;BME280;49698;48.072;7.800;2023-07-29T08:19:17;98910.88;;;23.41;82.17
63552;BME280;49698;48.072;7.800;2023-07-29T08:21:46;98915.44;;;23.27;82.43
63552;BME280;49698;48.072;7.800;2023-07-29T08:24:14;98910.66;;;23.13;82.61
63552;BME280;49698;48.072;7.800;2023-07-29T08:26:42;98918.03;;;23.05;82.25
63552;BME280;49698;48.072;7.800;2023-07-29T08:29:11;98918.41;;;23.07;80.39
63552;BME280;49698;48.072;7.800;2023-07-29T08:31:39;98920.78;;;23.05;80.91
63552;BME280;49698;48.072;7.800;2023-07-29T08:34:07;98917.66;;;23.10;80.40
63552;BME280;49698;48.072;7.800;2023-07-29T08:36:36;98921.66;;;23.16;80.06
63552;BME280;49698;48.072;7.800;2023-07-29T08:39:05;98917.09;;;23.31;79.44
63552;BME280;49698;48.072;7.800;2023-07-29T08:41:37;98914.88;;;23.51;78.75
63552;BME280;49698;48.072;7.800;2023-07-29T08:44:10;98926.75;;;23.70;78.08
63552;BME280;49698;48.072;7.800;2023-07-29T08:46:40;98924.19;;;23.95;77.30
63552;BME280;49698;48.072;7.800;2023-07-29T08:49:08;98925.88;;;24.17;76.19
63552;BME280;49698;48.072;7.800;2023-07-29T08:51:44;98920.91;;;24.40;75.62
63552;BME280;49698;48.072;7.800;2023-07-29T08:54:13;98917.44;;;24.65;74.71
63552;BME280;49698;48.072;7.800;2023-07-29T08:56:42;98922.19;;;24.93;73.75
63552;BME280;49698;48.072;7.800;2023-07-29T08:59:11;98917.94;;;25.13;71.96
63552;BME280;49698;48.072;7.800;2023-07-29T09:01:41;98926.53;;;25.08;71.31
63552;BME280;49698;48.072;7.800;2023-07-29T09:04:09;98936.72;;;24.97;71.67
63552;BME280;49698;48.072;7.800;2023-07-29T09:06:39;98941.44;;;24.82;72.20
63552;BME280;49698;48.072;7.800;2023-07-29T09:09:09;98936.28;;;24.63;72.14
63552;BME280;49698;48.072;7.800;2023-07-29T09:11:37;98935.81;;;24.43;72.16
63552;BME280;49698;48.072;7.800;2023-07-29T09:14:05;98939.25;;;24.26;72.51
63552;BME280;49698;48.072;7.800;2023-07-29T09:16:33;98932.53;;;24.20;72.12
63552;BME280;49698;48.072;7.800;2023-07-29T09:19:02;98922.34;;;24.16;71.93
63552;BME280;49698;48.072;7.800;2023-07-29T09:21:31;98928.63;;;24.21;71.67
63552;BME280;49698;48.072;7.800;2023-07-29T09:24:03;98919.22;;;24.22;70.65
63552;BME280;49698;48.072;7.800;2023-07-29T09:26:33;98928.25;;;24.22;71.01
63552;BME280;49698;48.072;7.800;2023-07-29T09:29:01;98926.38;;;24.40;70.79
63552;BME280;49698;48.072;7.800;2023-07-29T09:31:30;98920.97;;;24.73;69.17
63552;BME280;49698;48.072;7.800;2023-07-29T09:33:59;98924.56;;;24.87;68.84
63552;BME280;49698;48.072;7.800;2023-07-29T09:36:29;98921.78;;;24.84;67.52
63552;BME280;49698;48.072;7.800;2023-07-29T09:38:58;98920.22;;;24.76;67.35
63552;BME280;49698;48.072;7.800;2023-07-29T09:41:27;98920.97;;;24.65;67.48
63552;BME280;49698;48.072;7.800;2023-07-29T09:44:01;98914.66;;;24.58;67.65
63552;BME280;49698;48.072;7.800;2023-07-29T09:46:32;98917.81;;;24.56;67.81
63552;BME280;49698;48.072;7.800;2023-07-29T09:49:01;98929.97;;;24.52;67.11
63552;BME280;49698;48.072;7.800;2023-07-29T09:51:30;98924.47;;;24.52;66.95
63552;BME280;49698;48.072;7.800;2023-07-29T09:54:02;98932.34;;;24.57;66.32
63552;BME280;49698;48.072;7.800;2023-07-29T09:56:31;98940.16;;;24.58;66.29
63552;BME280;49698;48.072;7.800;2023-07-29T09:59:00;98931.16;;;24.58;66.03
63552;BME280;49698;48.072;7.800;2023-07-29T10:01:30;98939.00;;;24.52;66.18
63552;BME280;49698;48.072;7.800;2023-07-29T10:03:59;98934.25;;;24.46;66.59
63552;BME280;49698;48.072;7.800;2023-07-29T10:06:28;98938.53;;;24.43;66.90
63552;BME280;49698;48.072;7.800;2023-07-29T10:08:58;98943.19;;;24.35;66.71
63552;BME280;49698;48.072;7.800;2023-07-29T10:11:26;98936.50;;;24.26;66.86
63552;BME280;49698;48.072;7.800;2023-07-29T10:13:55;98940.00;;;24.23;66.73
63552;BME280;49698;48.072;7.800;2023-07-29T10:16:34;98940.41;;;24.21;66.78
63552;BME280;49698;48.072;7.800;2023-07-29T10:19:04;98942.75;;;24.23;66.75
63552;BME280;49698;48.072;7.800;2023-07-29T10:21:32;98939.22;;;24.22;67.01
63552;BME280;49698;48.072;7.800;2023-07-29T10:24:06;98943.94;;;24.22;66.47
63552;BME280;49698;48.072;7.800;2023-07-29T10:26:38;98949.81;;;24.24;66.55
63552;BME280;49698;48.072;7.800;2023-07-29T10:29:10;98944.31;;;24.24;66.78
63552;BME280;49698;48.072;7.800;2023-07-29T10:31:43;98951.00;;;24.23;66.90
63552;BME280;49698;48.072;7.800;2023-07-29T10:34:11;98946.69;;;24.22;67.24
63552;BME280;49698;48.072;7.800;2023-07-29T10:36:40;98932.19;;;24.25;67.49
63552;BME280;49698;48.072;7.800;2023-07-29T10:39:09;98937.31;;;24.33;67.51
63552;BME280;49698;48.072;7.800;2023-07-29T10:41:58;98947.59;;;24.40;67.31
63552;BME280;49698;48.072;7.800;2023-07-29T10:44:48;98944.88;;;24.47;67.11
63552;BME280;49698;48.072;7.800;2023-07-29T10:47:20;98941.75;;;24.52;67.11
63552;BME280;49698;48.072;7.800;2023-07-29T10:49:50;98934.28;;;24.56;66.95
63552;BME280;49698;48.072;7.800;2023-07-29T10:52:40;98945.31;;;24.67;66.79
63552;BME280;49698;48.072;7.800;2023-07-29T10:55:24;98936.28;;;24.74;66.86
63552;BME280;49698;48.072;7.800;2023-07-29T10:58:04;98930.44;;;24.82;66.24
63552;BME280;49698;48.072;7.800;2023-07-29T11:00:32;98937.13;;;24.92;65.84
63552;BME280;49698;48.072;7.800;2023-07-29T11:03:04;98937.16;;;25.03;65.84
63552;BME280;49698;48.072;7.800;2023-07-29T11:05:47;98928.53;;;25.11;64.69
63552;BME280;49698;48.072;7.800;2023-07-29T11:08:27;98935.22;;;25.18;64.31
63552;BME280;49698;48.072;7.800;2023-07-29T11:11:02;98928.56;;;25.33;62.85
63552;BME280;49698;48.072;7.800;2023-07-29T11:13:32;98934.44;;;25.49;62.66
63552;BME280;49698;48.072;7.800;2023-07-29T11:16:01;98925.75;;;25.69;62.06
63552;BME280;49698;48.072;7.800;2023-07-29T11:18:33;98916.31;;;25.77;61.96
63552;BME280;49698;48.072;7.800;2023-07-29T11:21:03;98911.59;;;25.81;61.57
63552;BME280;49698;48.072;7.800;2023-07-29T11:23:33;98919.44;;;25.93;61.62
63552;BME280;49698;48.072;7.800;2023-07-29T11:26:03;98906.81;;;26.06;61.06
63552;BME280;49698;48.072;7.800;2023-07-29T11:28:37;98897.38;;;26.11;60.90
63552;BME280;49698;48.072;7.800;2023-07-29T11:31:05;98904.41;;;26.19;60.21
63552;BME280;49698;48.072;7.800;2023-07-29T11:33:38;98904.84;;;26.14;60.25
63552;BME280;49698;48.072;7.800;2023-07-29T11:36:06;98900.53;;;26.06;59.44
63552;BME280;49698;48.072;7.800;2023-07-29T11:38:45;98898.16;;;26.04;59.20
63552;BME280;49698;48.072;7.800;2023-07-29T11:41:19;98908.41;;;26.04;58.22
63552;BME280;49698;48.072;7.800;2023-07-29T11:43:47;98914.69;;;26.08;57.75
63552;BME280;49698;48.072;7.800;2023-07-29T11:46:15;98906.00;;;26.09;57.81
63552;BME280;49698;48.072;7.800;2023-07-29T11:48:45;98914.28;;;26.09;57.66
63552;BME280;49698;48.072;7.800;2023-07-29T11:51:14;98910.75;;;26.05;57.43
63552;BME280;49698;48.072;7.800;2023-07-29T11:53:42;98909.97;;;25.98;57.11
63552;BME280;49698;48.072;7.800;2023-07-29T11:56:11;98902.53;;;25.98;57.32
63552;BME280;49698;48.072;7.800;2023-07-29T11:58:39;98889.53;;;26.02;56.96
63552;BME280;49698;48.072;7.800;2023-07-29T12:01:09;98887.53;;;26.06;56.91
63552;BME280;49698;48.072;7.800;2023-07-29T12:03:38;98885.94;;;26.09;56.97
63552;BME280;49698;48.072;7.800;2023-07-29T12:06:09;98885.56;;;26.14;56.62
63552;BME280;49698;48.072;7.800;2023-07-29T12:08:37;98873.31;;;26.19;56.50
63552;BME280;49698;48.072;7.800;2023-07-29T12:11:05;98868.16;;;26.24;55.99
63552;BME280;49698;48.072;7.800;2023-07-29T12:13:36;98870.13;;;26.31;56.41
63552;BME280;49698;48.072;7.800;2023-07-29T12:16:04;98864.19;;;26.36;55.90
63552;BME280;49698;48.072;7.800;2023-07-29T12:18:33;98863.75;;;26.45;55.62
63552;BME280;49698;48.072;7.800;2023-07-29T12:21:01;98872.81;;;26.52;55.97
63552;BME280;49698;48.072;7.800;2023-07-29T12:23:31;98881.41;;;26.58;55.87
63552;BME280;49698;48.072;7.800;2023-07-29T12:25:59;98874.72;;;26.59;56.17
63552;BME280;49698;48.072;7.800;2023-07-29T12:28:29;98875.91;;;26.54;56.23
63552;BME280;49698;48.072;7.800;2023-07-29T12:30:59;98877.50;;;26.52;56.27
63552;BME280;49698;48.072;7.800;2023-07-29T12:33:30;98872.84;;;26.45;56.31
63552;BME280;49698;48.072;7.800;2023-07-29T12:35:59;98875.56;;;26.42;56.47
63552;BME280;49698;48.072;7.800;2023-07-29T12:38:27;98880.72;;;26.36;56.76
63552;BME280;49698;48.072;7.800;2023-07-29T12:40:57;98876.41;;;26.28;56.75
63552;BME280;49698;48.072;7.800;2023-07-29T12:43:25;98872.13;;;26.20;57.30
63552;BME280;49698;48.072;7.800;2023-07-29T12:45:57;98888.31;;;26.10;56.69
63552;BME280;49698;48.072;7.800;2023-07-29T12:48:25;98878.88;;;26.04;56.81
63552;BME280;49698;48.072;7.800;2023-07-29T12:50:53;98880.09;;;26.00;57.16
63552;BME280;49698;48.072;7.800;2023-07-29T12:53:22;98869.84;;;26.00;57.56
63552;BME280;49698;48.072;7.800;2023-07-29T12:55:50;98874.56;;;26.03;57.51
63552;BME280;49698;48.072;7.800;2023-07-29T12:58:20;98878.09;;;26.07;57.42
63552;BME280;49698;48.072;7.800;2023-07-29T13:00:48;98882.03;;;26.06;57.00
63552;BME280;49698;48.072;7.800;2023-07-29T13:03:16;98884.78;;;26.06;57.15
63552;BME280;49698;48.072;7.800;2023-07-29T13:05:44;98879.28;;;26.06;56.65
63552;BME280;49698;48.072;7.800;2023-07-29T13:08:12;98885.16;;;26.08;56.19
63552;BME280;49698;48.072;7.800;2023-07-29T13:10:40;98889.47;;;26.13;55.61